createdAt,value
2023-05-17T00:00:40.897Z,95628.53
2023-05-17T00:01:44.513Z,95628.53
2023-05-17T00:02:48.419Z,95625.09
2023-05-17T00:03:54.330Z,95620.28
2023-05-17T00:05:00.082Z,95628.53
2023-05-17T00:06:05.074Z,95628.53
2023-05-17T00:07:07.974Z,95622.44
2023-05-17T00:08:12.533Z,95616.31
2023-05-17T00:09:15.756Z,95621.63
2023-05-17T00:10:19.460Z,95622.44
2023-05-17T00:11:23.503Z,95625.34
2023-05-17T00:12:27.924Z,95627.75
2023-05-17T00:13:32.073Z,95620.03
2023-05-17T00:14:36.120Z,95615.00
2023-05-17T00:15:39.105Z,95619.22
2023-05-17T00:16:44.005Z,95621.09
2023-05-17T00:17:47.365Z,95624.56
2023-05-17T00:18:51.581Z,95619.22
2023-05-17T00:19:54.635Z,95621.88
2023-05-17T00:20:58.733Z,95621.38
2023-05-17T00:22:02.674Z,95619.50
2023-05-17T00:23:06.673Z,95621.38
2023-05-17T00:24:09.791Z,95616.31
2023-05-17T00:25:13.736Z,95618.97
2023-05-17T00:26:17.847Z,95618.16
2023-05-17T00:27:21.794Z,95620.06
2023-05-17T00:28:24.654Z,95610.97
2023-05-17T00:29:30.120Z,95625.09
2023-05-17T00:30:33.375Z,95618.16
2023-05-17T00:31:37.065Z,95617.38
2023-05-17T00:32:40.119Z,95628.03
2023-05-17T00:33:43.708Z,95622.97
2023-05-17T00:34:47.027Z,95619.50
2023-05-17T00:35:50.521Z,95618.69
2023-05-17T00:36:53.366Z,95618.69
2023-05-17T00:37:57.346Z,95618.69
2023-05-17T00:38:59.926Z,95620.31
2023-05-17T00:40:07.104Z,95618.69
2023-05-17T00:41:10.660Z,95630.97
2023-05-17T00:42:15.606Z,95621.91
2023-05-17T00:43:19.412Z,95624.56
2023-05-17T00:44:23.019Z,95620.31
2023-05-17T00:45:27.331Z,95621.91
2023-05-17T00:46:31.567Z,95623.50
2023-05-17T00:47:35.068Z,95624.56
2023-05-17T00:48:39.279Z,95628.81
2023-05-17T00:49:42.287Z,95627.25
2023-05-17T00:50:46.429Z,95620.81
2023-05-17T00:51:49.559Z,95623.50
2023-05-17T00:52:53.127Z,95624.28
2023-05-17T00:53:56.696Z,95618.16
2023-05-17T00:55:00.869Z,95626.94
2023-05-17T00:56:03.987Z,95617.38
2023-05-17T00:57:08.151Z,95626.16
2023-05-17T00:58:11.506Z,95621.91
2023-05-17T00:59:15.961Z,95620.06
2023-05-17T01:00:18.997Z,95630.16
2023-05-17T01:01:28.447Z,95619.25
2023-05-17T01:02:31.666Z,95620.81
2023-05-17T01:03:35.860Z,95622.72
2023-05-17T01:04:39.644Z,95621.91
2023-05-17T01:05:43.970Z,95623.50
2023-05-17T01:06:46.951Z,95626.16
2023-05-17T01:07:51.004Z,95627.75
2023-05-17T01:08:54.447Z,95623.50
2023-05-17T01:09:58.237Z,95631.47
2023-05-17T01:11:14.899Z,95630.41
2023-05-17T01:12:31.956Z,95629.63
2023-05-17T01:13:41.065Z,95636.03
2023-05-17T01:14:53.911Z,95635.22
2023-05-17T01:16:06.477Z,95630.97
2023-05-17T01:17:18.017Z,95624.81
2023-05-17T01:18:31.259Z,95631.50
2023-05-17T01:19:52.894Z,95629.88
2023-05-17T01:21:00.238Z,95630.94
2023-05-17T01:22:21.285Z,95635.22
2023-05-17T01:23:37.273Z,95625.88
2023-05-17T01:24:51.773Z,95631.19
2023-05-17T01:26:09.374Z,95638.38
2023-05-17T01:27:15.776Z,95636.00
2023-05-17T01:28:21.836Z,95631.75
2023-05-17T01:29:27.016Z,95639.47
2023-05-17T01:30:32.363Z,95642.91
2023-05-17T01:31:36.929Z,95645.31
2023-05-17T01:32:43.198Z,95632.00
2023-05-17T01:33:46.237Z,95641.06
2023-05-17T01:34:49.866Z,95637.34
2023-05-17T01:35:53.728Z,95632.81
2023-05-17T01:36:57.950Z,95647.97
2023-05-17T01:38:00.908Z,95633.06
2023-05-17T01:39:05.145Z,95646.38
2023-05-17T01:40:09.564Z,95633.06
2023-05-17T01:41:21.089Z,95630.41
2023-05-17T01:42:31.702Z,95639.47
2023-05-17T01:43:43.185Z,95629.88
2023-05-17T01:45:00.780Z,95637.06
2023-05-17T01:46:14.850Z,95641.06
2023-05-17T01:47:28.942Z,95638.66
2023-05-17T01:48:41.272Z,95637.09
2023-05-17T01:49:49.422Z,95636.28
2023-05-17T01:50:55.715Z,95643.47
2023-05-17T01:52:03.640Z,95643.19
2023-05-17T01:53:12.189Z,95636.00
2023-05-17T01:54:19.133Z,95630.97
2023-05-17T01:55:33.004Z,95628.28
2023-05-17T01:56:41.887Z,95633.06
2023-05-17T01:57:50.452Z,95641.06
2023-05-17T01:58:54.179Z,95631.50
2023-05-17T02:00:01.960Z,95636.03
2023-05-17T02:01:16.104Z,95634.16
2023-05-17T02:02:22.813Z,95637.59
2023-05-17T02:03:29.497Z,95636.53
2023-05-17T02:04:33.091Z,95637.34
2023-05-17T02:05:37.104Z,95640.00
2023-05-17T02:06:40.144Z,95629.09
2023-05-17T02:07:44.008Z,95641.31
2023-05-17T02:08:46.788Z,95639.47
2023-05-17T02:09:50.834Z,95645.59
2023-05-17T02:10:54.470Z,95647.44
2023-05-17T02:11:58.480Z,95636.81
2023-05-17T02:13:02.635Z,95643.97
2023-05-17T02:14:06.151Z,95644.28
2023-05-17T02:15:11.639Z,95644.28
2023-05-17T02:16:15.764Z,95646.13
2023-05-17T02:17:19.000Z,95647.19
2023-05-17T02:18:23.259Z,95646.38
2023-05-17T02:19:26.167Z,95641.06
2023-05-17T02:20:30.295Z,95646.38
2023-05-17T02:21:33.453Z,95646.38
2023-05-17T02:22:37.648Z,95653.56
2023-05-17T02:23:41.233Z,95654.66
2023-05-17T02:24:44.461Z,95655.44
2023-05-17T02:25:48.267Z,95650.91
2023-05-17T02:26:51.527Z,95649.03
2023-05-17T02:27:56.892Z,95651.72
2023-05-17T02:29:01.445Z,95663.16
2023-05-17T02:30:06.745Z,95656.22
2023-05-17T02:31:09.885Z,95655.44
2023-05-17T02:32:13.827Z,95653.84
2023-05-17T02:33:17.026Z,95663.69
2023-05-17T02:34:21.162Z,95663.97
2023-05-17T02:35:24.048Z,95663.97
2023-05-17T02:36:28.344Z,95668.75
2023-05-17T02:37:30.992Z,95661.56
2023-05-17T02:38:35.165Z,95658.91
2023-05-17T02:39:37.803Z,95672.22
2023-05-17T02:40:43.155Z,95669.81
2023-05-17T02:41:46.367Z,95665.56
2023-05-17T02:42:50.523Z,95672.47
2023-05-17T02:43:53.488Z,95663.44
2023-05-17T02:44:58.911Z,95672.22
2023-05-17T02:46:01.938Z,95675.13
2023-05-17T02:47:06.320Z,95677.78
2023-05-17T02:48:09.897Z,95669.56
2023-05-17T02:49:14.268Z,95672.22
2023-05-17T02:50:17.341Z,95659.72
2023-05-17T02:51:21.155Z,95668.75
2023-05-17T02:52:24.100Z,95673.28
2023-05-17T02:53:28.423Z,95682.88
2023-05-17T02:54:31.158Z,95675.69
2023-05-17T02:55:35.454Z,95681.00
2023-05-17T02:56:38.162Z,95682.06
2023-05-17T02:57:41.710Z,95675.69
2023-05-17T02:58:45.534Z,95682.88
2023-05-17T02:59:49.474Z,95680.19
2023-05-17T03:00:59.022Z,95686.31
2023-05-17T03:02:15.165Z,95683.13
2023-05-17T03:03:22.290Z,95689.25
2023-05-17T03:04:36.477Z,95679.94
2023-05-17T03:05:39.173Z,95674.59
2023-05-17T03:06:44.220Z,95681.53
2023-05-17T03:07:46.728Z,95683.13
2023-05-17T03:08:50.555Z,95677.28
2023-05-17T03:09:53.559Z,95677.78
2023-05-17T03:10:57.459Z,95683.91
2023-05-17T03:12:01.472Z,95690.03
2023-05-17T03:13:05.645Z,95694.56
2023-05-17T03:14:08.382Z,95696.19
2023-05-17T03:15:13.137Z,95691.66
2023-05-17T03:16:17.434Z,95686.31
2023-05-17T03:17:21.648Z,95699.63
2023-05-17T03:18:25.589Z,95688.44
2023-05-17T03:19:29.667Z,95695.38
2023-05-17T03:20:32.695Z,95699.88
2023-05-17T03:21:36.586Z,95692.72
2023-05-17T03:22:40.448Z,95696.97
2023-05-17T03:23:44.236Z,95699.63
2023-05-17T03:24:47.658Z,95694.31
2023-05-17T03:25:51.361Z,95693.25
2023-05-17T03:26:54.067Z,95698.59
2023-05-17T03:27:58.600Z,95699.34
2023-05-17T03:29:01.400Z,95689.50
2023-05-17T03:30:05.540Z,95705.50
2023-05-17T03:31:08.737Z,95705.50
2023-05-17T03:32:13.927Z,95703.38
2023-05-17T03:33:16.882Z,95700.97
2023-05-17T03:34:20.583Z,95699.34
2023-05-17T03:35:23.990Z,95703.63
2023-05-17T03:36:28.438Z,95708.69
2023-05-17T03:37:31.527Z,95709.75
2023-05-17T03:38:36.944Z,95708.69
2023-05-17T03:39:40.914Z,95704.16
2023-05-17T03:40:44.418Z,95702.56
2023-05-17T03:41:49.102Z,95701.78
2023-05-17T03:42:52.151Z,95705.22
2023-05-17T03:43:56.172Z,95712.41
2023-05-17T03:44:59.315Z,95707.91
2023-05-17T03:46:03.524Z,95707.09
2023-05-17T03:47:06.762Z,95715.06
2023-05-17T03:48:12.046Z,95711.63
2023-05-17T03:49:15.020Z,95711.63
2023-05-17T03:50:19.069Z,95709.75
2023-05-17T03:51:23.037Z,95721.47
2023-05-17T03:52:26.765Z,95716.69
2023-05-17T03:53:29.597Z,95725.44
2023-05-17T03:54:33.610Z,95724.69
2023-05-17T03:55:36.747Z,95725.44
2023-05-17T03:56:41.193Z,95731.56
2023-05-17T03:57:44.223Z,95724.69
2023-05-17T03:58:47.936Z,95730.78
2023-05-17T03:59:50.917Z,95735.31
2023-05-17T04:00:54.865Z,95733.44
2023-05-17T04:01:58.829Z,95738.25
2023-05-17T04:03:02.855Z,95749.69
2023-05-17T04:04:07.352Z,95740.66
2023-05-17T04:05:13.087Z,95748.34
2023-05-17T04:06:16.159Z,95744.63
2023-05-17T04:07:21.253Z,95745.44
2023-05-17T04:08:24.095Z,95751.56
2023-05-17T04:09:27.718Z,95743.59
2023-05-17T04:10:31.053Z,95741.69
2023-05-17T04:11:35.181Z,95752.34
2023-05-17T04:12:38.629Z,95748.63
2023-05-17T04:13:43.310Z,95750.47
2023-05-17T04:14:46.465Z,95749.69
2023-05-17T04:15:51.045Z,95749.16
2023-05-17T04:16:55.014Z,95745.69
2023-05-17T04:17:58.896Z,95754.72
2023-05-17T04:19:03.101Z,95749.41
2023-05-17T04:20:08.020Z,95752.34
2023-05-17T04:21:13.222Z,95749.69
2023-05-17T04:22:15.952Z,95753.41
2023-05-17T04:23:19.204Z,95758.72
2023-05-17T04:24:23.310Z,95761.94
2023-05-17T04:25:27.139Z,95755.00
2023-05-17T04:26:31.563Z,95755.81
2023-05-17T04:27:34.229Z,95753.97
2023-05-17T04:28:38.450Z,95756.63
2023-05-17T04:29:41.342Z,95758.19
2023-05-17T04:30:46.277Z,95763.53
2023-05-17T04:31:50.996Z,95759.81
2023-05-17T04:32:53.754Z,95768.31
2023-05-17T04:33:57.641Z,95764.59
2023-05-17T04:35:01.255Z,95771.53
2023-05-17T04:36:07.438Z,95755.56
2023-05-17T04:37:11.736Z,95762.47
2023-05-17T04:38:16.581Z,95770.44
2023-05-17T04:39:19.336Z,95770.44
2023-05-17T04:40:22.977Z,95772.88
2023-05-17T04:41:25.893Z,95769.41
2023-05-17T04:42:30.053Z,95779.00
2023-05-17T04:43:33.713Z,95774.72
2023-05-17T04:44:37.388Z,95781.66
2023-05-17T04:45:40.059Z,95785.13
2023-05-17T04:46:44.409Z,95783.25
2023-05-17T04:47:48.068Z,95783.78
2023-05-17T04:48:52.089Z,95781.13
2023-05-17T04:49:56.598Z,95788.59
2023-05-17T04:51:04.602Z,95791.03
2023-05-17T04:52:09.466Z,95791.28
2023-05-17T04:53:13.673Z,95794.47
2023-05-17T04:54:16.832Z,95792.34
2023-05-17T04:55:21.346Z,95792.88
2023-05-17T04:56:24.424Z,95793.44
2023-05-17T04:57:28.401Z,95790.47
2023-05-17T04:58:32.724Z,95796.31
2023-05-17T04:59:36.490Z,95802.22
2023-05-17T05:00:39.080Z,95801.69
2023-05-17T05:01:43.566Z,95804.06
2023-05-17T05:02:47.200Z,95794.75
2023-05-17T05:03:51.398Z,95796.88
2023-05-17T05:04:54.414Z,95804.59
2023-05-17T05:05:58.510Z,95806.22
2023-05-17T05:07:01.620Z,95797.16
2023-05-17T05:08:06.980Z,95801.16
2023-05-17T05:09:11.655Z,95800.09
2023-05-17T05:10:15.545Z,95805.13
2023-05-17T05:11:19.000Z,95809.94
2023-05-17T05:12:22.578Z,95806.22
2023-05-17T05:13:25.579Z,95804.59
2023-05-17T05:14:30.608Z,95808.88
2023-05-17T05:15:33.928Z,95815.25
2023-05-17T05:16:37.888Z,95813.16
2023-05-17T05:17:40.859Z,95811.53
2023-05-17T05:18:45.568Z,95819.00
2023-05-17T05:19:48.829Z,95815.28
2023-05-17T05:20:53.338Z,95810.72
2023-05-17T05:21:57.251Z,95813.13
2023-05-17T05:23:03.980Z,95813.13
2023-05-17T05:24:10.370Z,95814.75
2023-05-17T05:25:13.081Z,95825.41
2023-05-17T05:26:17.110Z,95825.13
2023-05-17T05:27:20.413Z,95827.53
2023-05-17T05:28:25.034Z,95823.78
2023-05-17T05:29:29.032Z,95827.53
2023-05-17T05:30:34.045Z,95828.84
2023-05-17T05:31:37.124Z,95831.53
2023-05-17T05:32:40.930Z,95828.59
2023-05-17T05:33:44.449Z,95835.50
2023-05-17T05:34:49.141Z,95834.47
2023-05-17T05:35:54.928Z,95834.97
2023-05-17T05:36:59.123Z,95835.78
2023-05-17T05:38:02.002Z,95836.59
2023-05-17T05:39:07.847Z,95836.34
2023-05-17T05:40:14.577Z,95841.38
2023-05-17T05:41:19.110Z,95849.38
2023-05-17T05:42:22.349Z,95850.44
2023-05-17T05:43:26.081Z,95852.84
2023-05-17T05:44:29.178Z,95846.72
2023-05-17T05:45:34.006Z,95852.03
2023-05-17T05:46:37.359Z,95865.13
2023-05-17T05:47:40.837Z,95869.66
2023-05-17T05:48:45.032Z,95862.69
2023-05-17T05:49:49.144Z,95868.03
2023-05-17T05:50:53.368Z,95866.97
2023-05-17T05:51:57.640Z,95871.22
2023-05-17T05:53:11.007Z,95874.97
2023-05-17T05:54:21.996Z,95880.84
2023-05-17T05:55:27.069Z,95877.09
2023-05-17T05:56:30.837Z,95884.03
2023-05-17T05:57:33.793Z,95880.03
2023-05-17T05:58:38.466Z,95879.78
2023-05-17T05:59:41.090Z,95885.09
2023-05-17T06:00:45.368Z,95895.22
2023-05-17T06:01:49.412Z,95895.22
2023-05-17T06:02:54.148Z,95896.84
2023-05-17T06:03:57.113Z,95898.41
2023-05-17T06:05:01.793Z,95897.09
2023-05-17T06:06:05.870Z,95902.44
2023-05-17T06:07:09.688Z,95901.34
2023-05-17T06:08:13.050Z,95897.88
2023-05-17T06:09:17.487Z,95891.50
2023-05-17T06:10:21.268Z,95881.88
2023-05-17T06:11:27.807Z,95880.03
2023-05-17T06:12:31.037Z,95878.16
2023-05-17T06:13:35.467Z,95877.09
2023-05-17T06:14:38.738Z,95875.75
2023-05-17T06:15:43.262Z,95868.56
2023-05-17T06:16:48.859Z,95873.38
2023-05-17T06:17:52.775Z,95871.22
2023-05-17T06:18:56.505Z,95885.63
2023-05-17T06:20:00.898Z,95886.16
2023-05-17T06:21:04.321Z,95884.28
2023-05-17T06:22:08.279Z,95888.56
2023-05-17T06:23:11.145Z,95877.06
2023-05-17T06:24:15.467Z,95874.38
2023-05-17T06:25:18.277Z,95873.50
2023-05-17T06:26:22.680Z,95880.03
2023-05-17T06:27:27.173Z,95881.91
2023-05-17T06:28:31.138Z,95882.56
2023-05-17T06:29:34.834Z,95874.22
2023-05-17T06:30:37.789Z,95879.59
2023-05-17T06:31:41.642Z,95884.16
2023-05-17T06:32:44.479Z,95886.13
2023-05-17T06:33:48.258Z,95890.88
2023-05-17T06:34:51.610Z,95887.72
2023-05-17T06:35:58.168Z,95889.59
2023-05-17T06:37:01.772Z,95887.22
2023-05-17T06:38:05.929Z,95888.78
2023-05-17T06:39:09.180Z,95890.66
2023-05-17T06:40:17.021Z,95886.56
2023-05-17T06:41:21.362Z,95880.00
2023-05-17T06:42:30.785Z,95884.69
2023-05-17T06:43:35.747Z,95888.81
2023-05-17T06:44:40.768Z,95885.44
2023-05-17T06:45:44.784Z,95884.44
2023-05-17T06:46:48.094Z,95892.75
2023-05-17T06:47:52.866Z,95878.94
2023-05-17T06:48:56.789Z,95885.06
2023-05-17T06:50:00.105Z,95894.84
2023-05-17T06:51:03.881Z,95892.72
2023-05-17T06:52:06.685Z,95899.66
2023-05-17T06:53:10.965Z,95908.66
2023-05-17T06:54:14.821Z,95902.06
2023-05-17T06:55:18.579Z,95905.69
2023-05-17T06:56:22.374Z,95907.41
2023-05-17T06:57:25.385Z,95907.03
2023-05-17T06:58:31.909Z,95909.13
2023-05-17T06:59:35.005Z,95915.97
2023-05-17T07:00:38.999Z,95916.66
2023-05-17T07:01:42.621Z,95918.38
2023-05-17T07:02:46.372Z,95919.75
2023-05-17T07:03:49.895Z,95917.19
2023-05-17T07:04:53.023Z,95916.78
2023-05-17T07:05:58.124Z,95917.66
2023-05-17T07:07:01.530Z,95924.63
2023-05-17T07:08:06.038Z,95923.16
2023-05-17T07:09:09.485Z,95928.44
2023-05-17T07:10:13.336Z,95919.19
2023-05-17T07:11:16.989Z,95918.81
2023-05-17T07:12:21.161Z,95937.53
2023-05-17T07:13:26.691Z,95936.91
2023-05-17T07:14:31.282Z,95941.47
2023-05-17T07:15:35.098Z,95944.47
2023-05-17T07:16:39.360Z,95945.22
2023-05-17T07:17:44.322Z,95944.81
2023-05-17T07:18:48.822Z,95942.41
2023-05-17T07:20:00.297Z,95948.16
2023-05-17T07:21:05.659Z,95953.72
2023-05-17T07:22:08.600Z,95941.78
2023-05-17T07:23:13.537Z,95946.13
2023-05-17T07:24:17.090Z,95946.22
2023-05-17T07:25:25.006Z,95958.06
2023-05-17T07:26:30.087Z,95952.00
2023-05-17T07:27:34.017Z,95950.47
2023-05-17T07:28:38.673Z,95942.72
2023-05-17T07:29:44.854Z,95936.47
2023-05-17T07:30:50.877Z,95939.94
2023-05-17T07:31:59.144Z,95944.31
2023-05-17T07:33:05.171Z,95945.22
2023-05-17T07:34:09.700Z,95949.00
2023-05-17T07:35:13.307Z,95948.00
2023-05-17T07:36:17.495Z,95949.69
2023-05-17T07:37:22.480Z,95945.69
2023-05-17T07:38:26.634Z,95952.19
2023-05-17T07:39:29.880Z,95951.38
2023-05-17T07:40:33.509Z,95954.94
2023-05-17T07:41:39.244Z,95960.69
2023-05-17T07:42:43.473Z,95959.66
2023-05-17T07:43:46.190Z,95957.56
2023-05-17T07:44:52.685Z,95957.66
2023-05-17T07:45:55.534Z,95965.00
2023-05-17T07:46:59.902Z,95963.09
2023-05-17T07:48:02.849Z,95965.19
2023-05-17T07:49:06.908Z,95976.16
2023-05-17T07:50:10.738Z,95971.59
2023-05-17T07:51:14.980Z,95983.34
2023-05-17T07:52:18.485Z,95980.56
2023-05-17T07:53:23.047Z,95981.00
2023-05-17T07:54:31.329Z,95983.03
2023-05-17T07:55:36.137Z,95982.25
2023-05-17T07:56:39.883Z,95984.66
2023-05-17T07:57:45.658Z,95992.38
2023-05-17T07:58:49.850Z,95985.44
2023-05-17T07:59:56.942Z,95980.41
2023-05-17T08:01:02.288Z,95989.06
2023-05-17T08:02:06.687Z,95995.06
2023-05-17T08:03:11.706Z,95994.47
2023-05-17T08:04:15.775Z,95994.47
2023-05-17T08:05:20.420Z,96000.09
2023-05-17T08:06:25.669Z,96005.69
2023-05-17T08:07:30.145Z,96001.78
2023-05-17T08:08:35.471Z,95995.72
2023-05-17T08:09:41.039Z,96001.69
2023-05-17T08:10:46.738Z,96003.84
2023-05-17T08:11:50.396Z,96011.44
2023-05-17T08:12:55.612Z,96002.66
2023-05-17T08:14:00.319Z,96003.81
2023-05-17T08:15:08.122Z,96014.97
2023-05-17T08:16:14.822Z,96010.28
2023-05-17T08:17:20.703Z,96009.56
2023-05-17T08:18:24.919Z,96018.53
2023-05-17T08:19:30.588Z,96016.13
2023-05-17T08:20:36.181Z,96016.91
2023-05-17T08:21:40.526Z,96014.22
2023-05-17T08:22:45.678Z,96021.28
2023-05-17T08:23:49.607Z,96017.28
2023-05-17T08:24:54.874Z,96018.69
2023-05-17T08:25:57.908Z,96015.50
2023-05-17T08:27:02.704Z,96015.31
2023-05-17T08:28:06.683Z,96018.84
2023-05-17T08:29:11.281Z,96011.38
2023-05-17T08:30:27.860Z,96019.25
2023-05-17T08:31:33.604Z,96015.31
2023-05-17T08:32:37.826Z,96018.00
2023-05-17T08:33:42.943Z,96017.22
2023-05-17T08:34:47.767Z,96020.09
2023-05-17T08:35:53.519Z,96028.00
2023-05-17T08:36:56.700Z,96019.50
2023-05-17T08:38:01.433Z,96011.06
2023-05-17T08:39:09.171Z,96019.00
2023-05-17T08:40:13.067Z,96023.00
2023-05-17T08:41:18.081Z,96017.63
2023-05-17T08:42:25.730Z,96024.91
2023-05-17T08:43:29.737Z,96030.88
2023-05-17T08:44:34.544Z,96026.06
2023-05-17T08:45:40.283Z,96028.25
2023-05-17T08:46:46.070Z,96034.72
2023-05-17T08:47:52.067Z,96037.13
2023-05-17T08:49:00.452Z,96039.00
2023-05-17T08:50:05.492Z,96040.63
2023-05-17T08:51:10.572Z,96045.19
2023-05-17T08:52:16.071Z,96042.50
2023-05-17T08:53:20.014Z,96049.16
2023-05-17T08:54:24.905Z,96040.50
2023-05-17T08:55:33.430Z,96039.63
2023-05-17T08:56:44.315Z,96046.81
2023-05-17T08:57:51.049Z,96040.28
2023-05-17T08:58:58.146Z,96045.78
2023-05-17T09:00:04.595Z,96052.06
2023-05-17T09:01:15.497Z,96046.72
2023-05-17T09:02:19.741Z,96047.81
2023-05-17T09:03:25.637Z,96047.41
2023-05-17T09:04:31.680Z,96050.38
2023-05-17T09:05:36.604Z,96044.19
2023-05-17T09:06:45.934Z,96054.50
2023-05-17T09:07:50.534Z,96056.00
2023-05-17T09:08:55.912Z,96052.94
2023-05-17T09:10:00.597Z,96054.94
2023-05-17T09:11:04.324Z,96056.13
2023-05-17T09:12:09.292Z,96054.69
2023-05-17T09:13:13.449Z,96056.31
2023-05-17T09:14:18.416Z,96060.09
2023-05-17T09:15:28.326Z,96063.88
2023-05-17T09:16:35.678Z,96058.38
2023-05-17T09:17:39.919Z,96060.44
2023-05-17T09:18:43.232Z,96066.72
2023-05-17T09:19:50.906Z,96061.78
2023-05-17T09:20:55.154Z,96060.94
2023-05-17T09:22:02.913Z,96064.88
2023-05-17T09:23:09.823Z,96064.91
2023-05-17T09:24:13.382Z,96069.09
2023-05-17T09:25:21.317Z,96071.44
2023-05-17T09:26:26.355Z,96069.03
2023-05-17T09:27:33.185Z,96068.69
2023-05-17T09:28:41.058Z,96069.75
2023-05-17T09:29:47.435Z,96069.72
2023-05-17T09:30:52.760Z,96077.44
2023-05-17T09:32:13.488Z,96075.50
2023-05-17T09:33:19.025Z,96082.13
2023-05-17T09:34:26.979Z,96078.97
2023-05-17T09:35:31.162Z,96082.13
2023-05-17T09:36:39.091Z,96083.72
2023-05-17T09:37:45.952Z,96078.97
2023-05-17T09:38:59.574Z,96085.56
2023-05-17T09:40:07.402Z,96092.19
2023-05-17T09:41:11.830Z,96089.66
2023-05-17T09:42:18.480Z,96097.84
2023-05-17T09:43:26.681Z,96098.59
2023-05-17T09:44:30.480Z,96103.16
2023-05-17T09:45:33.601Z,96108.78
2023-05-17T09:46:43.006Z,96103.00
2023-05-17T09:47:48.590Z,96108.19
2023-05-17T09:48:55.521Z,96110.22
2023-05-17T09:50:04.071Z,96113.81
2023-05-17T09:51:08.356Z,96112.00
2023-05-17T09:52:11.236Z,96116.44
2023-05-17T09:53:26.289Z,96125.72
2023-05-17T09:54:33.665Z,96120.44
2023-05-17T09:55:39.206Z,96124.84
2023-05-17T09:56:43.287Z,96127.66
2023-05-17T09:57:48.780Z,96136.44
2023-05-17T09:58:52.225Z,96121.47
2023-05-17T09:59:58.253Z,96131.25
2023-05-17T10:01:03.920Z,96136.28
2023-05-17T10:02:13.329Z,96134.28
2023-05-17T10:03:18.280Z,96139.22
2023-05-17T10:04:24.944Z,96132.84
2023-05-17T10:05:28.636Z,96137.25
2023-05-17T10:06:46.067Z,96139.41
2023-05-17T10:07:52.754Z,96141.91
2023-05-17T10:08:59.591Z,96137.63
2023-05-17T10:10:05.415Z,96143.03
2023-05-17T10:11:11.328Z,96138.94
2023-05-17T10:12:18.769Z,96144.31
2023-05-17T10:13:26.050Z,96142.41
2023-05-17T10:14:32.648Z,96147.00
2023-05-17T10:15:38.672Z,96142.41
2023-05-17T10:16:43.645Z,96147.50
2023-05-17T10:17:48.413Z,96144.81
2023-05-17T10:18:54.125Z,96145.59
2023-05-17T10:19:59.946Z,96150.69
2023-05-17T10:21:03.903Z,96144.19
2023-05-17T10:22:18.974Z,96150.09
2023-05-17T10:23:27.923Z,96155.38
2023-05-17T10:24:32.028Z,96160.53
2023-05-17T10:25:37.288Z,96155.16
2023-05-17T10:26:41.084Z,96159.47
2023-05-17T10:27:45.639Z,96155.69
2023-05-17T10:28:51.636Z,96148.69
2023-05-17T10:29:56.588Z,96151.88
2023-05-17T10:31:00.791Z,96153.59
2023-05-17T10:32:07.828Z,96151.19
2023-05-17T10:33:16.027Z,96152.56
2023-05-17T10:34:21.955Z,96150.16
2023-05-17T10:35:27.634Z,96149.88
2023-05-17T10:36:31.953Z,96148.19
2023-05-17T10:37:36.318Z,96152.97
2023-05-17T10:38:42.836Z,96157.25
2023-05-17T10:39:51.204Z,96156.16
2023-05-17T10:40:56.622Z,96150.78
2023-05-17T10:42:13.588Z,96150.56
2023-05-17T10:43:20.061Z,96151.69
2023-05-17T10:44:23.381Z,96155.38
2023-05-17T10:45:28.239Z,96146.41
2023-05-17T10:46:32.559Z,96142.50
2023-05-17T10:47:36.916Z,96146.13
2023-05-17T10:48:41.721Z,96142.16
2023-05-17T10:49:48.698Z,96151.63
2023-05-17T10:52:13.889Z,96145.72
2023-05-17T10:53:16.939Z,96140.53
2023-05-17T10:54:21.716Z,96151.78
2023-05-17T10:55:27.438Z,96143.41
2023-05-17T10:56:32.408Z,96148.47
2023-05-17T10:58:46.319Z,96153.38
2023-05-17T11:00:00.504Z,96160.78
2023-05-17T11:01:08.211Z,96159.88
2023-05-17T11:02:11.350Z,96159.91
2023-05-17T11:03:17.076Z,96157.41
2023-05-17T11:04:26.313Z,96167.53
2023-05-17T11:05:33.908Z,96167.44
2023-05-17T11:06:38.579Z,96174.00
2023-05-17T11:07:43.851Z,96165.16
2023-05-17T11:09:08.530Z,96165.16
2023-05-17T11:10:14.448Z,96174.69
2023-05-17T11:11:18.855Z,96169.91
2023-05-17T11:12:39.376Z,96173.47
2023-05-17T11:13:48.201Z,96168.91
2023-05-17T11:14:55.342Z,96178.88
2023-05-17T11:16:06.153Z,96182.63
2023-05-17T11:17:14.726Z,96173.28
2023-05-17T11:18:29.548Z,96180.84
2023-05-17T11:19:35.846Z,96180.16
2023-05-17T11:20:41.972Z,96178.34
2023-05-17T11:21:49.369Z,96173.81
2023-05-17T11:23:02.817Z,96177.41
2023-05-17T11:24:08.850Z,96179.38
2023-05-17T11:25:13.843Z,96185.06
2023-05-17T11:26:22.773Z,96182.97
2023-05-17T11:27:27.745Z,96177.38
2023-05-17T11:28:35.952Z,96178.75
2023-05-17T11:29:41.475Z,96171.56
2023-05-17T11:30:52.208Z,96185.66
2023-05-17T11:31:55.695Z,96179.09
2023-05-17T11:33:01.162Z,96180.28
2023-05-17T11:34:05.404Z,96179.84
2023-05-17T11:35:12.306Z,96187.69
2023-05-17T11:36:24.413Z,96183.69
2023-05-17T11:37:28.927Z,96179.44
2023-05-17T11:38:34.481Z,96181.00
2023-05-17T11:39:37.754Z,96186.31
2023-05-17T11:40:42.780Z,96185.97
2023-05-17T11:41:51.171Z,96184.56
2023-05-17T11:43:14.333Z,96188.34
2023-05-17T11:44:27.118Z,96185.16
2023-05-17T11:45:39.503Z,96186.25
2023-05-17T11:46:44.532Z,96188.94
2023-05-17T11:47:49.718Z,96184.34
2023-05-17T11:48:54.893Z,96179.25
2023-05-17T11:50:02.041Z,96178.25
2023-05-17T11:51:24.418Z,96183.91
2023-05-17T11:52:31.878Z,96181.09
2023-05-17T11:53:35.699Z,96179.78
2023-05-17T11:54:43.047Z,96185.44
2023-05-17T11:55:48.679Z,96183.06
2023-05-17T11:56:54.386Z,96189.22
2023-05-17T11:57:58.243Z,96182.75
2023-05-17T11:59:01.673Z,96182.66
2023-05-17T12:00:06.188Z,96179.94
2023-05-17T12:01:11.745Z,96182.53
2023-05-17T12:02:29.552Z,96177.16
2023-05-17T12:03:33.637Z,96189.00
2023-05-17T12:04:39.756Z,96183.13
2023-05-17T12:05:43.038Z,96179.94
2023-05-17T12:06:47.030Z,96181.00
2023-05-17T12:07:53.767Z,96178.09
2023-05-17T12:08:58.741Z,96181.69
2023-05-17T12:10:02.752Z,96180.66
2023-05-17T12:11:07.469Z,96186.59
2023-05-17T12:12:10.885Z,96181.28
2023-05-17T12:13:15.671Z,96186.97
2023-05-17T12:14:20.570Z,96186.16
2023-05-17T12:15:23.767Z,96189.66
2023-05-17T12:16:30.829Z,96193.38
2023-05-17T12:17:38.656Z,96189.22
2023-05-17T12:18:44.539Z,96186.47
2023-05-17T12:19:48.909Z,96188.50
2023-05-17T12:20:58.424Z,96191.63
2023-05-17T12:22:08.781Z,96193.13
2023-05-17T12:23:13.857Z,96197.44
2023-05-17T12:24:18.196Z,96207.91
2023-05-17T12:25:22.603Z,96200.69
2023-05-17T12:26:26.697Z,96198.06
2023-05-17T12:27:31.577Z,96208.41
2023-05-17T12:28:35.866Z,96203.16
2023-05-17T12:29:40.319Z,96214.41
2023-05-17T12:30:43.647Z,96227.81
2023-05-17T12:31:51.706Z,96211.91
2023-05-17T12:32:55.086Z,96225.06
2023-05-17T12:34:02.995Z,96226.84
2023-05-17T12:35:06.740Z,96221.72
2023-05-17T12:36:12.477Z,96222.59
2023-05-17T12:37:17.011Z,96218.94
2023-05-17T12:38:22.571Z,96219.81
2023-05-17T12:39:26.961Z,96228.97
2023-05-17T12:40:30.249Z,96237.56
2023-05-17T12:41:34.451Z,96222.59
2023-05-17T12:42:41.276Z,96236.56
2023-05-17T12:43:46.880Z,96234.44
2023-05-17T12:44:50.903Z,96235.00
2023-05-17T12:45:55.065Z,96237.69
2023-05-17T12:46:58.809Z,96238.25
2023-05-17T12:48:03.321Z,96235.56
2023-05-17T12:49:08.776Z,96238.22
2023-05-17T12:50:13.079Z,96233.13